Anchorville, Michigan
Current Conditions -  °F | °C
As of 9:58 PM on Wednesday 22 Oct 2014 (Local Time) from KMTC Reporting Station
Clear Clear  
Wind Chill: 38°   Ceiling: Unl
Heat Index: 42°   Visibility: 10mi
Dew Point: 39°   Wind: 6mph
Humidity: 91%   Direction: 10°N
Pressure: 30.27"   Gusts: NA
Location:  42.69°N, 82.7°W
Report Text: KMTC 230158Z AUTO 01005KT 10SM CLR 05/04 A3027 RMK AO2 SLP258 T00530039 $
Loading
Personal Weather Stations






























Interactive Weather Map New forecast layout! Learn more

10-Day Weather Forecast

Advertisements
Track Severe Weather on mobile